Hettstadt Airport


Codes: EDGH/
Name: Hettstadt Airport
City: Hettstadt
Country: Germany
Elevation: 1050 ft.

Photos at Hettstadt Airport


   Photos courtesy of SpottingLog. You can add your own sightings and photos by signing up for a free trial today.



No photos found.

Weather at Hettstadt Airport


Time (UTC)DescriptionTempratureWindCloud coverageVisibilityPressureHumidity
19-Apr-2024 03:00Overcast Clouds4°C11 mph, SW100%10000m1017hPa84%
19-Apr-2024 06:00Light Rain4°C16 mph, SW100%10000m1016hPa86%
19-Apr-2024 09:00Light Rain4°C22 mph, SW100%66m1014hPa92%
19-Apr-2024 12:00Moderate Rain3°C22 mph, SW100%100m1009hPa97%
19-Apr-2024 15:00Light Rain5°C20 mph, W100%2392m1007hPa96%
19-Apr-2024 18:00Light Rain5°C18 mph, NW100%10000m1007hPa90%
19-Apr-2024 21:00Broken Clouds3°C16 mph, W83%10000m1010hPa90%
20-Apr-2024 00:00Light Rain3°C18 mph, W86%10000m1011hPa92%
20-Apr-2024 03:00Light Rain3°C18 mph, NW100%10000m1013hPa90%
20-Apr-2024 06:00Overcast Clouds3°C13 mph, NW100%10000m1016hPa85%
20-Apr-2024 09:00Overcast Clouds5°C13 mph, NW93%10000m1019hPa72%
20-Apr-2024 12:00Light Rain7°C11 mph, NW96%10000m1019hPa59%
20-Apr-2024 15:00Light Rain8°C9 mph, N100%10000m1019hPa52%
20-Apr-2024 18:00Overcast Clouds5°C4 mph, NE98%10000m1021hPa73%
20-Apr-2024 21:00Overcast Clouds3°C2 mph, NE99%10000m1022hPa78%
21-Apr-2024 00:00Overcast Clouds3°C2 mph, NE99%10000m1022hPa80%
21-Apr-2024 03:00Overcast Clouds2°C2 mph, E99%10000m1023hPa85%
21-Apr-2024 06:00Overcast Clouds3°C7 mph, E98%10000m1024hPa78%
21-Apr-2024 09:00Scattered Clouds7°C9 mph, E34%10000m1025hPa58%
21-Apr-2024 12:00Light Rain8°C9 mph, NE65%10000m1024hPa47%
21-Apr-2024 15:00Light Rain9°C13 mph, NE97%10000m1023hPa43%
21-Apr-2024 18:00Broken Clouds5°C7 mph, NE67%10000m1024hPa66%
21-Apr-2024 21:00Broken Clouds2°C4 mph, NE64%10000m1026hPa70%
22-Apr-2024 00:00Scattered Clouds-0°C4 mph, N46%10000m1026hPa77%
22-Apr-2024 03:00Few Clouds-1°C2 mph, NE14%10000m1025hPa80%
22-Apr-2024 06:00Broken Clouds2°C2 mph, N53%10000m1025hPa69%
22-Apr-2024 09:00Light Rain7°C2 mph, NE51%10000m1024hPa63%
22-Apr-2024 12:00Light Rain8°C4 mph, NW78%10000m1022hPa55%
22-Apr-2024 15:00Light Rain8°C2 mph, N100%10000m1021hPa50%
22-Apr-2024 18:00Light Rain4°C7 mph, NE100%10000m1021hPa83%
22-Apr-2024 21:00Light Rain2°C2 mph, E100%10000m1021hPa92%
23-Apr-2024 00:00Overcast Clouds1°C4 mph, NE98%10000m1020hPa95%
23-Apr-2024 03:00Overcast Clouds0°C4 mph, NE87%10000m1019hPa97%
23-Apr-2024 06:00Overcast Clouds2°C4 mph, E93%10000m1019hPa88%
23-Apr-2024 09:00Overcast Clouds6°C9 mph, E100%10000m1018hPa69%
23-Apr-2024 12:00Light Rain10°C9 mph, E98%10000m1015hPa46%
23-Apr-2024 15:00Overcast Clouds10°C9 mph, NE100%10000m1014hPa53%
23-Apr-2024 18:00Overcast Clouds7°C13 mph, NE93%10000m1013hPa66%
23-Apr-2024 21:00Scattered Clouds3°C9 mph, NE28%10000m1015hPa79%
24-Apr-2024 00:00Few Clouds1°C7 mph, NE17%10000m1015hPa85%